createdAt,value
2018-05-17T00:00:55.152Z,0.00
2018-05-17T00:01:55.186Z,0.00
2018-05-17T00:02:55.199Z,0.00
2018-05-17T00:03:55.219Z,0.00
2018-05-17T00:04:55.234Z,0.00
2018-05-17T00:05:55.340Z,0.00
2018-05-17T00:06:55.274Z,0.00
2018-05-17T00:07:55.298Z,0.00
2018-05-17T00:08:55.316Z,0.00
2018-05-17T00:09:55.338Z,0.00
2018-05-17T00:10:55.357Z,0.00
2018-05-17T00:11:55.487Z,0.00
2018-05-17T00:12:55.394Z,0.00
2018-05-17T00:13:55.423Z,0.00
2018-05-17T00:14:55.436Z,0.00
2018-05-17T00:15:55.462Z,0.00
2018-05-17T00:16:55.538Z,0.00
2018-05-17T00:17:55.524Z,0.00
2018-05-17T00:18:55.585Z,0.00
2018-05-17T00:19:55.597Z,0.00
2018-05-17T00:20:55.578Z,0.00
2018-05-17T00:21:55.578Z,0.00
2018-05-17T00:22:55.610Z,0.00
2018-05-17T00:23:55.675Z,0.00
2018-05-17T00:24:55.641Z,0.00
2018-05-17T00:25:55.663Z,0.00
2018-05-17T00:26:55.678Z,0.00
2018-05-17T00:27:55.697Z,0.00
2018-05-17T00:28:55.726Z,0.00
2018-05-17T00:29:55.739Z,0.00
2018-05-17T00:30:55.768Z,0.00
2018-05-17T00:31:55.785Z,0.00
2018-05-17T00:32:55.801Z,0.00
2018-05-17T00:33:55.822Z,0.00
2018-05-17T00:34:55.841Z,0.00
2018-05-17T00:35:55.865Z,0.00
2018-05-17T00:36:55.879Z,0.00
2018-05-17T00:37:55.909Z,0.00
2018-05-17T00:38:55.924Z,0.00
2018-05-17T00:39:55.940Z,0.00
2018-05-17T00:40:55.962Z,0.00
2018-05-17T00:41:55.984Z,0.00
2018-05-17T00:42:56.003Z,0.00
2018-05-17T00:43:56.023Z,0.00
2018-05-17T00:44:56.046Z,0.00
2018-05-17T00:45:56.073Z,0.00
2018-05-17T00:46:56.108Z,0.00
2018-05-17T00:47:56.101Z,0.00
2018-05-17T00:48:56.124Z,0.00
2018-05-17T00:49:56.145Z,0.00
2018-05-17T00:50:56.163Z,0.00
2018-05-17T00:51:56.186Z,0.00
2018-05-17T00:52:56.202Z,0.00
2018-05-17T00:53:56.223Z,0.00
2018-05-17T00:54:56.245Z,0.00
2018-05-17T00:55:56.267Z,0.00
2018-05-17T00:56:56.283Z,0.00
2018-05-17T00:57:56.357Z,0.00
2018-05-17T00:58:56.325Z,0.00
2018-05-17T00:59:56.348Z,0.00
2018-05-17T01:00:56.368Z,0.00
2018-05-17T01:01:56.383Z,0.00
2018-05-17T01:02:56.410Z,0.00
2018-05-17T01:03:56.429Z,0.00
2018-05-17T01:04:56.532Z,0.00
2018-05-17T01:05:56.467Z,0.00
2018-05-17T01:06:56.489Z,0.00
2018-05-17T01:07:56.508Z,0.00
2018-05-17T01:08:56.523Z,0.00
2018-05-17T01:09:56.545Z,0.00
2018-05-17T01:10:56.651Z,0.00
2018-05-17T01:11:56.590Z,0.00
2018-05-17T01:12:56.605Z,0.00
2018-05-17T01:13:56.630Z,0.00
2018-05-17T01:14:56.644Z,0.00
2018-05-17T01:15:56.669Z,0.00
2018-05-17T01:16:56.724Z,0.00
2018-05-17T01:17:56.706Z,0.00
2018-05-17T01:18:56.722Z,0.00
2018-05-17T01:19:56.745Z,0.00
2018-05-17T01:20:56.764Z,0.00
2018-05-17T01:21:56.788Z,0.00
2018-05-17T01:22:56.824Z,0.00
2018-05-17T01:23:56.824Z,0.00
2018-05-17T01:24:56.844Z,0.00
2018-05-17T01:25:56.865Z,0.00
2018-05-17T01:26:56.889Z,0.00
2018-05-17T01:27:56.905Z,0.00
2018-05-17T01:28:56.981Z,0.00
2018-05-17T01:29:56.948Z,0.00
2018-05-17T01:30:56.966Z,0.00
2018-05-17T01:31:56.989Z,0.00
2018-05-17T01:32:57.006Z,0.00
2018-05-17T01:33:57.027Z,0.00
2018-05-17T01:34:57.126Z,0.00
2018-05-17T01:35:57.069Z,0.00
2018-05-17T01:36:57.086Z,0.00
2018-05-17T01:37:57.106Z,0.00
2018-05-17T01:38:57.122Z,0.00
2018-05-17T01:39:57.198Z,0.00
2018-05-17T01:40:57.166Z,0.00
2018-05-17T01:41:57.190Z,0.00
2018-05-17T01:42:57.206Z,0.00
2018-05-17T01:43:57.231Z,0.00
2018-05-17T01:44:57.249Z,0.00
2018-05-17T01:45:57.310Z,0.00
2018-05-17T01:46:57.284Z,0.00
2018-05-17T01:47:57.301Z,0.00
2018-05-17T01:48:57.329Z,0.00
2018-05-17T01:49:57.344Z,0.00
2018-05-17T01:50:57.364Z,0.00
2018-05-17T01:51:57.441Z,0.00
2018-05-17T01:52:57.405Z,0.00
2018-05-17T01:53:57.420Z,0.00
2018-05-17T01:54:57.444Z,0.00
2018-05-17T01:55:57.467Z,0.00
2018-05-17T01:56:57.487Z,0.00
2018-05-17T01:57:57.605Z,0.00
2018-05-17T01:58:57.522Z,0.00
2018-05-17T01:59:57.545Z,0.00
2018-05-17T02:00:57.565Z,0.00
2018-05-17T02:01:57.589Z,0.00
2018-05-17T02:02:57.602Z,0.00
2018-05-17T02:03:57.678Z,0.00
2018-05-17T02:04:57.642Z,0.00
2018-05-17T02:05:57.661Z,0.00
2018-05-17T02:06:57.686Z,0.00
2018-05-17T02:07:57.714Z,0.00
2018-05-17T02:08:57.725Z,0.00
2018-05-17T02:09:57.834Z,0.00
2018-05-17T02:10:57.759Z,0.00
2018-05-17T02:11:57.781Z,0.00
2018-05-17T02:12:57.802Z,0.00
2018-05-17T02:13:57.826Z,0.00
2018-05-17T02:14:57.840Z,0.00
2018-05-17T02:15:57.861Z,0.00
2018-05-17T02:16:57.885Z,0.00
2018-05-17T02:17:57.901Z,0.00
2018-05-17T02:18:57.926Z,0.00
2018-05-17T02:19:57.945Z,0.00
2018-05-17T02:20:57.956Z,0.00
2018-05-17T02:21:57.988Z,0.00
2018-05-17T02:22:57.998Z,0.00
2018-05-17T02:23:58.019Z,0.00
2018-05-17T02:24:58.041Z,0.00
2018-05-17T02:25:58.064Z,0.00
2018-05-17T02:26:58.163Z,0.00
2018-05-17T02:27:58.152Z,0.00
2018-05-17T02:28:58.127Z,0.00
2018-05-17T02:29:58.144Z,0.00
2018-05-17T02:30:58.160Z,0.00
2018-05-17T02:31:58.177Z,0.00
2018-05-17T02:32:58.201Z,0.00
2018-05-17T02:33:58.280Z,0.00
2018-05-17T02:34:58.241Z,0.00
2018-05-17T02:35:58.259Z,0.00
2018-05-17T02:36:58.277Z,0.00
2018-05-17T02:37:58.299Z,0.00
2018-05-17T02:38:58.320Z,0.00
2018-05-17T02:39:58.439Z,0.00
2018-05-17T02:40:58.362Z,0.00
2018-05-17T02:41:58.382Z,0.00
2018-05-17T02:42:58.399Z,0.00
2018-05-17T02:43:58.422Z,0.00
2018-05-17T02:44:58.441Z,0.00
2018-05-17T02:45:58.509Z,0.00
2018-05-17T02:46:58.485Z,0.00
2018-05-17T02:47:58.500Z,0.00
2018-05-17T02:48:58.520Z,0.00
2018-05-17T02:49:58.618Z,0.00
2018-05-17T02:50:58.568Z,0.00
2018-05-17T02:51:58.629Z,0.00
2018-05-17T02:52:58.602Z,0.00
2018-05-17T02:53:58.621Z,0.00
2018-05-17T02:54:58.643Z,0.00
2018-05-17T02:55:58.679Z,0.00
2018-05-17T02:56:58.685Z,0.00
2018-05-17T02:57:58.750Z,0.00
2018-05-17T02:58:58.716Z,0.00
2018-05-17T02:59:58.764Z,0.00
2018-05-17T03:00:58.761Z,0.00
2018-05-17T03:01:58.831Z,0.00
2018-05-17T03:04:06.834Z,0.00
2018-05-17T03:04:58.843Z,0.00
2018-05-17T03:05:58.875Z,0.00
2018-05-17T03:06:58.892Z,0.00
2018-05-17T03:07:58.938Z,0.00
2018-05-17T03:08:58.921Z,0.00
2018-05-17T03:09:58.985Z,0.00
2018-05-17T03:10:58.961Z,0.00
2018-05-17T03:11:58.974Z,0.00
2018-05-17T03:12:59.003Z,0.00
2018-05-17T03:13:59.071Z,0.00
2018-05-17T03:14:59.037Z,0.00
2018-05-17T03:15:59.066Z,0.00
2018-05-17T03:16:59.085Z,0.00
2018-05-17T03:17:59.099Z,0.00
2018-05-17T03:18:59.122Z,0.00
2018-05-17T03:19:59.160Z,0.00
2018-05-17T03:20:59.160Z,0.00
2018-05-17T03:21:59.182Z,0.00
2018-05-17T03:22:59.200Z,0.00
2018-05-17T03:23:59.220Z,0.00
2018-05-17T03:24:59.237Z,0.00
2018-05-17T03:25:59.259Z,0.00
2018-05-17T03:26:59.279Z,0.00
2018-05-17T03:27:59.298Z,0.00
2018-05-17T03:28:59.318Z,0.00
2018-05-17T03:29:59.335Z,0.00
2018-05-17T03:30:59.355Z,0.00
2018-05-17T03:31:59.375Z,0.00
2018-05-17T03:32:59.391Z,0.00
2018-05-17T03:33:59.414Z,0.00
2018-05-17T03:34:59.431Z,0.00
2018-05-17T03:35:59.454Z,0.00
2018-05-17T03:36:59.489Z,0.00
2018-05-17T03:37:59.494Z,0.00
2018-05-17T03:38:59.518Z,0.00
2018-05-17T03:39:59.538Z,0.00
2018-05-17T03:40:59.550Z,0.00
2018-05-17T03:41:59.570Z,0.00
2018-05-17T03:42:59.594Z,0.00
2018-05-17T03:43:59.614Z,0.00
2018-05-17T03:44:59.634Z,0.00
2018-05-17T03:45:59.649Z,0.00
2018-05-17T03:46:59.669Z,0.00
2018-05-17T03:47:59.697Z,0.00
2018-05-17T03:48:59.710Z,0.00
2018-05-17T03:49:59.726Z,0.00
2018-05-17T03:50:59.754Z,0.00
2018-05-17T03:51:59.770Z,0.00
2018-05-17T03:52:59.792Z,0.00
2018-05-17T03:53:59.809Z,0.00
2018-05-17T03:54:59.883Z,0.00
2018-05-17T03:55:59.848Z,0.00
2018-05-17T03:56:59.862Z,0.00
2018-05-17T03:57:59.889Z,0.00
2018-05-17T03:58:59.910Z,0.00
2018-05-17T03:59:59.930Z,0.00
2018-05-17T04:00:59.967Z,0.00
2018-05-17T04:01:59.961Z,0.00
2018-05-17T04:02:59.982Z,0.00
2018-05-17T04:04:00.005Z,0.00
2018-05-17T04:05:00.037Z,0.00
2018-05-17T04:06:00.039Z,0.00
2018-05-17T04:07:00.076Z,0.00
2018-05-17T04:08:00.086Z,0.00
2018-05-17T04:09:00.104Z,0.00
2018-05-17T04:10:00.124Z,0.00
2018-05-17T04:11:00.141Z,0.00
2018-05-17T04:12:00.157Z,0.00
2018-05-17T04:13:00.193Z,0.00
2018-05-17T04:14:00.236Z,0.00
2018-05-17T04:15:00.222Z,0.00
2018-05-17T04:16:00.242Z,0.00
2018-05-17T04:17:00.262Z,0.00
2018-05-17T04:18:00.277Z,0.00
2018-05-17T04:19:00.295Z,0.00
2018-05-17T04:20:00.321Z,0.00
2018-05-17T04:21:00.340Z,0.00
2018-05-17T04:22:00.353Z,0.00
2018-05-17T04:23:00.376Z,0.00
2018-05-17T04:24:00.392Z,0.00
2018-05-17T04:25:00.499Z,0.00
2018-05-17T04:26:00.442Z,0.00
2018-05-17T04:27:00.452Z,0.00
2018-05-17T04:28:00.550Z,0.00
2018-05-17T04:29:00.492Z,0.00
2018-05-17T04:30:00.508Z,0.00
2018-05-17T04:31:00.534Z,0.00
2018-05-17T04:32:00.551Z,0.00
2018-05-17T04:33:00.570Z,0.00
2018-05-17T04:34:00.590Z,0.00
2018-05-17T04:35:00.612Z,0.00
2018-05-17T04:36:00.632Z,0.00
2018-05-17T04:37:00.647Z,0.00
2018-05-17T04:38:00.667Z,0.00
2018-05-17T04:39:00.688Z,0.00
2018-05-17T04:40:00.706Z,0.00
2018-05-17T04:41:00.724Z,0.00
2018-05-17T04:42:00.745Z,0.00
2018-05-17T04:43:00.764Z,0.00
2018-05-17T04:44:00.787Z,0.00
2018-05-17T04:45:00.808Z,0.00
2018-05-17T04:46:00.829Z,0.00
2018-05-17T04:47:00.853Z,0.00
2018-05-17T04:48:00.899Z,0.00
2018-05-17T04:49:00.879Z,0.00
2018-05-17T04:50:00.899Z,0.00
2018-05-17T04:51:00.918Z,0.00
2018-05-17T04:52:00.943Z,0.00
2018-05-17T04:53:00.959Z,0.00
2018-05-17T04:54:01.056Z,0.00
2018-05-17T04:55:00.999Z,0.00
2018-05-17T04:56:01.020Z,0.00
2018-05-17T04:57:01.040Z,0.00
2018-05-17T04:58:01.057Z,0.00
2018-05-17T04:59:01.077Z,0.00
2018-05-17T05:00:01.094Z,0.00
2018-05-17T05:01:01.119Z,0.00
2018-05-17T05:02:01.137Z,0.00
2018-05-17T05:03:01.280Z,0.00
2018-05-17T05:04:01.175Z,0.00
2018-05-17T05:05:01.193Z,0.00
2018-05-17T05:06:01.220Z,0.00
2018-05-17T05:07:01.245Z,0.00
2018-05-17T05:08:01.265Z,0.00
2018-05-17T05:09:01.274Z,0.00
2018-05-17T05:10:01.298Z,0.00
2018-05-17T05:11:01.315Z,0.00
2018-05-17T05:12:01.334Z,0.00
2018-05-17T05:13:01.356Z,0.00
2018-05-17T05:14:01.375Z,0.00
2018-05-17T05:15:01.398Z,0.00
2018-05-17T05:16:01.410Z,0.00
2018-05-17T05:17:01.428Z,0.00
2018-05-17T05:18:01.450Z,0.00
2018-05-17T05:19:01.468Z,0.00
2018-05-17T05:20:01.501Z,0.00
2018-05-17T05:21:01.509Z,0.00
2018-05-17T05:22:01.529Z,0.00
2018-05-17T05:23:01.551Z,0.00
2018-05-17T05:24:01.568Z,5.63
2018-05-17T05:25:01.591Z,5.63
2018-05-17T05:26:01.603Z,5.63
2018-05-17T05:27:01.627Z,5.63
2018-05-17T05:28:01.643Z,5.63
2018-05-17T05:29:01.666Z,5.63
2018-05-17T05:30:01.685Z,5.63
2018-05-17T05:31:01.700Z,5.63
2018-05-17T05:32:01.727Z,5.63
2018-05-17T05:33:01.745Z,11.25
2018-05-17T05:34:01.768Z,11.25
2018-05-17T05:35:01.826Z,11.25
2018-05-17T05:36:01.806Z,11.25
2018-05-17T05:37:01.824Z,11.25
2018-05-17T05:38:01.837Z,11.25
2018-05-17T05:39:01.855Z,11.25
2018-05-17T05:40:01.879Z,16.88
2018-05-17T05:41:01.909Z,16.88
2018-05-17T05:42:01.917Z,16.88
2018-05-17T05:43:01.934Z,16.88
2018-05-17T05:44:01.975Z,16.88
2018-05-17T05:45:01.981Z,16.88
2018-05-17T05:46:01.996Z,22.50
2018-05-17T05:47:02.050Z,22.50
2018-05-17T05:48:02.034Z,22.50
2018-05-17T05:49:02.057Z,22.50
2018-05-17T05:50:02.074Z,22.50
2018-05-17T05:51:02.091Z,22.50
2018-05-17T05:52:02.114Z,28.13
2018-05-17T05:53:02.193Z,28.13
2018-05-17T05:54:02.152Z,28.13
2018-05-17T05:55:02.169Z,28.13
2018-05-17T05:56:02.192Z,28.13
2018-05-17T05:57:02.207Z,33.75
2018-05-17T05:58:02.229Z,33.75
2018-05-17T05:59:02.312Z,33.75
2018-05-17T06:00:02.265Z,39.38
2018-05-17T06:01:02.288Z,39.38
2018-05-17T06:02:02.306Z,39.38
2018-05-17T06:03:02.326Z,39.38
2018-05-17T06:04:02.350Z,39.38
2018-05-17T06:05:02.368Z,45.00
2018-05-17T06:06:02.384Z,45.00
2018-05-17T06:07:02.406Z,45.00
2018-05-17T06:08:02.428Z,45.00
2018-05-17T06:09:02.445Z,45.00
2018-05-17T06:10:02.467Z,50.63
2018-05-17T06:11:02.492Z,50.63
2018-05-17T06:12:02.501Z,50.63
2018-05-17T06:13:02.526Z,50.63
2018-05-17T06:14:02.540Z,50.63
2018-05-17T06:15:02.565Z,56.25
2018-05-17T06:16:02.595Z,56.25
2018-05-17T06:17:02.611Z,56.25
2018-05-17T06:18:02.621Z,56.25
2018-05-17T06:19:02.648Z,61.88
2018-05-17T06:20:02.661Z,61.88
2018-05-17T06:21:02.678Z,61.88
2018-05-17T06:22:02.696Z,61.88
2018-05-17T06:23:02.720Z,67.50
2018-05-17T06:24:02.741Z,67.50
2018-05-17T06:25:02.754Z,67.50
2018-05-17T06:26:02.775Z,73.13
2018-05-17T06:27:02.794Z,73.13
2018-05-17T06:28:02.820Z,78.75
2018-05-17T06:29:02.836Z,78.75
2018-05-17T06:30:02.862Z,84.38
2018-05-17T06:31:02.875Z,84.38
2018-05-17T06:32:02.891Z,84.38
2018-05-17T06:33:02.915Z,90.00
2018-05-17T06:34:02.985Z,95.63
2018-05-17T06:35:02.955Z,101.25
2018-05-17T06:36:02.975Z,106.88
2018-05-17T06:37:02.987Z,118.13
2018-05-17T06:38:03.015Z,129.38
2018-05-17T06:39:03.027Z,146.25
2018-05-17T06:40:03.090Z,168.75
2018-05-17T06:41:03.072Z,185.63
2018-05-17T06:42:03.090Z,196.88
2018-05-17T06:43:03.116Z,202.50
2018-05-17T06:44:03.164Z,208.13
2018-05-17T06:45:03.151Z,208.13
2018-05-17T06:46:03.229Z,219.38
2018-05-17T06:47:03.188Z,219.38
2018-05-17T06:48:03.203Z,225.00
2018-05-17T06:49:03.230Z,230.63
2018-05-17T06:50:03.250Z,236.25
2018-05-17T06:51:03.267Z,241.88
2018-05-17T06:52:03.328Z,241.88
2018-05-17T06:53:03.304Z,247.50
2018-05-17T06:54:03.328Z,253.13
2018-05-17T06:55:03.342Z,253.13
2018-05-17T06:56:03.361Z,258.75
2018-05-17T06:57:03.383Z,264.38
2018-05-17T06:58:03.406Z,264.38
2018-05-17T06:59:03.428Z,264.38
2018-05-17T07:00:03.445Z,270.00
2018-05-17T07:01:03.552Z,275.63
2018-05-17T07:02:03.487Z,275.63
2018-05-17T07:03:03.508Z,281.25
2018-05-17T07:04:03.534Z,286.88
2018-05-17T07:05:03.542Z,292.50
2018-05-17T07:07:03.592Z,298.13
2018-05-17T07:08:03.609Z,303.75
2018-05-17T07:09:03.634Z,303.75
2018-05-17T07:10:03.792Z,309.38
2018-05-17T07:11:03.674Z,315.00
2018-05-17T07:12:03.692Z,315.00
2018-05-17T07:13:03.712Z,320.63
2018-05-17T07:14:03.731Z,326.25
2018-05-17T07:15:03.750Z,326.25
2018-05-17T07:16:03.859Z,331.88
2018-05-17T07:17:03.794Z,331.88
2018-05-17T07:18:04.019Z,331.88
2018-05-17T07:19:03.843Z,337.50
2018-05-17T07:20:03.878Z,343.13
2018-05-17T07:21:03.879Z,343.13
2018-05-17T07:22:03.923Z,348.75
2018-05-17T07:23:03.926Z,348.75
2018-05-17T07:24:04.033Z,348.75
2018-05-17T07:25:03.970Z,354.38
2018-05-17T07:26:03.989Z,360.00
2018-05-17T07:27:04.043Z,360.00
2018-05-17T07:28:04.100Z,365.63
2018-05-17T07:29:04.060Z,371.25
2018-05-17T07:30:04.077Z,376.88
2018-05-17T07:31:04.092Z,382.50
2018-05-17T07:32:04.110Z,382.50
2018-05-17T07:33:04.132Z,382.50
2018-05-17T07:34:04.159Z,376.88
2018-05-17T07:35:04.177Z,388.13
2018-05-17T07:36:04.196Z,388.13
2018-05-17T07:37:04.223Z,393.75
2018-05-17T07:38:04.246Z,399.38
2018-05-17T07:39:04.263Z,405.00
2018-05-17T07:40:04.289Z,405.00
2018-05-17T07:41:04.306Z,405.00
2018-05-17T07:42:04.328Z,405.00
2018-05-17T07:43:04.349Z,410.63
2018-05-17T07:44:04.367Z,410.63
2018-05-17T07:45:04.398Z,416.25
2018-05-17T07:46:04.414Z,421.88
2018-05-17T07:47:04.440Z,421.88
2018-05-17T07:48:04.460Z,427.50
2018-05-17T07:49:04.477Z,433.13
2018-05-17T07:50:04.498Z,433.13
2018-05-17T07:51:04.523Z,438.75
2018-05-17T07:52:04.591Z,438.75
2018-05-17T07:53:04.563Z,444.38
2018-05-17T07:54:04.586Z,444.38
2018-05-17T07:55:04.614Z,450.00
2018-05-17T07:56:04.633Z,450.00
2018-05-17T07:57:04.658Z,455.63
2018-05-17T07:58:04.684Z,455.63
2018-05-17T07:59:04.746Z,466.88
2018-05-17T08:00:04.719Z,450.00
2018-05-17T08:01:04.744Z,472.50
2018-05-17T08:02:04.764Z,472.50
2018-05-17T08:03:04.792Z,472.50
2018-05-17T08:04:04.818Z,478.13
2018-05-17T08:05:04.892Z,478.13
2018-05-17T08:06:04.853Z,478.13
2018-05-17T08:07:04.881Z,478.13
2018-05-17T08:08:04.907Z,483.75
2018-05-17T08:09:04.923Z,483.75
2018-05-17T08:10:04.948Z,489.38
2018-05-17T08:11:04.968Z,489.38
2018-05-17T08:12:04.990Z,495.00
2018-05-17T08:13:05.018Z,500.63
2018-05-17T08:14:05.040Z,500.63
2018-05-17T08:15:05.059Z,506.25
2018-05-17T08:16:05.086Z,506.25
2018-05-17T08:17:05.126Z,506.25
2018-05-17T08:18:05.157Z,511.88
2018-05-17T08:19:05.151Z,511.88
2018-05-17T08:20:05.180Z,517.50
2018-05-17T08:21:05.200Z,517.50
2018-05-17T08:22:05.227Z,523.13
2018-05-17T08:23:05.246Z,523.13
2018-05-17T08:24:05.271Z,528.75
2018-05-17T08:25:05.294Z,528.75
2018-05-17T08:26:05.314Z,511.88
2018-05-17T08:27:05.345Z,528.75
2018-05-17T08:28:05.365Z,528.75
2018-05-17T08:29:05.385Z,528.75
2018-05-17T08:30:05.493Z,528.75
2018-05-17T08:31:05.435Z,534.38
2018-05-17T08:32:05.459Z,534.38
2018-05-17T08:33:05.482Z,534.38
2018-05-17T08:34:05.508Z,540.00
2018-05-17T08:35:05.538Z,540.00
2018-05-17T08:36:05.691Z,540.00
2018-05-17T08:37:05.575Z,545.63
2018-05-17T08:38:05.596Z,545.63
2018-05-17T08:39:05.624Z,545.63
2018-05-17T08:40:05.651Z,551.25
2018-05-17T08:41:05.674Z,523.13
2018-05-17T08:42:05.716Z,545.63
2018-05-17T08:43:05.819Z,556.88
2018-05-17T08:44:05.755Z,556.88
2018-05-17T08:45:05.762Z,551.25
2018-05-17T08:46:05.796Z,556.88
2018-05-17T08:47:05.827Z,556.88
2018-05-17T08:48:05.856Z,562.50
2018-05-17T08:49:05.868Z,562.50
2018-05-17T08:50:05.889Z,562.50
2018-05-17T08:51:05.915Z,562.50
2018-05-17T08:52:05.935Z,556.88
2018-05-17T08:53:05.956Z,568.13
2018-05-17T08:54:06.015Z,573.75
2018-05-17T08:55:06.007Z,573.75
2018-05-17T08:56:06.030Z,573.75
2018-05-17T08:57:06.058Z,579.38
2018-05-17T08:58:06.085Z,579.38
2018-05-17T08:59:06.109Z,585.00
2018-05-17T09:00:06.138Z,585.00
2018-05-17T09:01:06.157Z,590.63
2018-05-17T09:02:06.193Z,590.63
2018-05-17T09:03:06.210Z,590.63
2018-05-17T09:04:06.232Z,590.63
2018-05-17T09:05:06.257Z,601.88
2018-05-17T09:06:06.316Z,596.25
2018-05-17T09:07:06.310Z,601.88
2018-05-17T09:08:06.339Z,601.88
2018-05-17T09:09:06.353Z,601.88
2018-05-17T09:10:06.387Z,601.88
2018-05-17T09:11:06.406Z,601.88
2018-05-17T09:12:06.463Z,601.88
2018-05-17T09:13:06.453Z,601.88
2018-05-17T09:14:06.477Z,607.50
2018-05-17T09:15:06.503Z,607.50
2018-05-17T09:16:06.579Z,607.50
2018-05-17T09:17:06.551Z,607.50
2018-05-17T09:18:06.585Z,607.50
2018-05-17T09:19:06.621Z,613.13
2018-05-17T09:20:06.700Z,613.13
2018-05-17T09:21:06.651Z,618.75
2018-05-17T09:22:06.683Z,618.75
2018-05-17T09:23:06.707Z,618.75
2018-05-17T09:24:06.760Z,618.75
2018-05-17T09:25:06.750Z,624.38
2018-05-17T09:26:06.779Z,630.00
2018-05-17T09:27:06.799Z,624.38
2018-05-17T09:28:06.828Z,630.00
2018-05-17T09:29:06.945Z,624.38
2018-05-17T09:30:06.901Z,624.38
2018-05-17T09:31:06.905Z,579.38
2018-05-17T09:32:06.927Z,635.63
2018-05-17T09:33:06.965Z,630.00
2018-05-17T09:34:07.036Z,635.63
2018-05-17T09:35:07.006Z,635.63
2018-05-17T09:36:07.032Z,646.88
2018-05-17T09:37:07.046Z,646.88
2018-05-17T09:38:07.078Z,641.25
2018-05-17T09:39:07.103Z,646.88
2018-05-17T09:40:07.124Z,641.25
2018-05-17T09:41:07.221Z,641.25
2018-05-17T09:42:07.235Z,630.00
2018-05-17T09:43:07.199Z,646.88
2018-05-17T09:44:07.227Z,646.88
2018-05-17T09:45:07.247Z,663.75
2018-05-17T09:46:07.307Z,641.25
2018-05-17T09:47:07.292Z,630.00
2018-05-17T09:48:07.321Z,641.25
2018-05-17T09:49:07.340Z,646.88
2018-05-17T09:50:07.366Z,652.50
2018-05-17T09:51:07.393Z,652.50
2018-05-17T09:53:07.437Z,652.50
2018-05-17T09:54:07.523Z,652.50
2018-05-17T09:55:07.544Z,652.50
2018-05-17T09:56:07.513Z,658.13
2018-05-17T09:57:07.559Z,658.13
2018-05-17T09:58:07.565Z,658.13
2018-05-17T09:59:07.588Z,658.13
2018-05-17T10:00:07.664Z,663.75
2018-05-17T10:01:07.644Z,669.38
2018-05-17T10:02:07.666Z,652.50
2018-05-17T10:03:07.690Z,669.38
2018-05-17T10:04:07.718Z,675.00
2018-05-17T10:05:07.738Z,675.00
2018-05-17T10:06:07.763Z,675.00
2018-05-17T10:07:07.785Z,669.38
2018-05-17T10:08:07.822Z,630.00
2018-05-17T10:09:07.839Z,680.63
2018-05-17T10:10:07.863Z,680.63
2018-05-17T10:11:07.895Z,680.63
2018-05-17T10:12:07.913Z,680.63
2018-05-17T10:13:07.996Z,675.00
2018-05-17T10:14:07.960Z,686.25
2018-05-17T10:15:07.988Z,686.25
2018-05-17T10:16:08.012Z,680.63
2018-05-17T10:17:08.060Z,686.25
2018-05-17T10:18:08.065Z,686.25
2018-05-17T10:19:08.084Z,686.25
2018-05-17T10:20:08.115Z,669.38
2018-05-17T10:21:08.134Z,686.25
2018-05-17T10:22:08.164Z,686.25
2018-05-17T10:23:08.364Z,686.25
2018-05-17T10:24:08.222Z,686.25
2018-05-17T10:25:08.249Z,686.25
2018-05-17T10:26:08.257Z,686.25
2018-05-17T10:27:08.287Z,686.25
2018-05-17T10:28:08.366Z,686.25
2018-05-17T10:29:08.340Z,686.25
2018-05-17T10:30:08.359Z,686.25
2018-05-17T10:31:08.392Z,686.25
2018-05-17T10:32:08.418Z,686.25
2018-05-17T10:33:08.440Z,686.25
2018-05-17T10:34:08.516Z,691.88
2018-05-17T10:35:08.492Z,691.88
2018-05-17T10:36:08.513Z,691.88
2018-05-17T10:37:08.535Z,680.63
2018-05-17T10:38:08.563Z,691.88
2018-05-17T10:39:08.588Z,691.88
2018-05-17T10:40:08.618Z,691.88
2018-05-17T10:41:08.639Z,691.88
2018-05-17T10:42:08.730Z,691.88
2018-05-17T10:43:08.693Z,697.50
2018-05-17T10:44:08.712Z,703.13
2018-05-17T10:45:08.741Z,697.50
2018-05-17T10:46:08.818Z,697.50
2018-05-17T10:47:08.792Z,703.13
2018-05-17T10:48:08.822Z,703.13
2018-05-17T10:49:08.842Z,703.13
2018-05-17T10:50:08.867Z,675.00
2018-05-17T10:51:08.890Z,703.13
2018-05-17T10:52:08.920Z,686.25
2018-05-17T10:53:08.940Z,663.75
2018-05-17T10:54:08.965Z,686.25
2018-05-17T10:55:08.992Z,703.13
2018-05-17T10:56:09.094Z,703.13
2018-05-17T10:57:09.039Z,708.75
2018-05-17T10:58:09.128Z,708.75
2018-05-17T10:59:09.088Z,708.75
2018-05-17T11:00:09.117Z,708.75
2018-05-17T11:01:09.148Z,714.38
2018-05-17T11:02:09.201Z,720.00
2018-05-17T11:03:09.188Z,663.75
2018-05-17T11:04:09.269Z,708.75
2018-05-17T11:05:09.248Z,697.50
2018-05-17T11:06:09.260Z,703.13
2018-05-17T11:07:09.297Z,630.00
2018-05-17T11:08:09.333Z,708.75
2018-05-17T11:09:09.354Z,714.38
2018-05-17T11:10:09.369Z,708.75
2018-05-17T11:11:09.393Z,708.75
2018-05-17T11:12:09.496Z,708.75
2018-05-17T11:13:09.439Z,714.38
2018-05-17T11:14:09.490Z,708.75
2018-05-17T11:15:09.577Z,708.75
2018-05-17T11:16:09.600Z,708.75
2018-05-17T11:17:09.540Z,714.38
2018-05-17T11:18:09.571Z,703.13
2018-05-17T11:19:09.596Z,708.75
2018-05-17T11:20:09.652Z,714.38
2018-05-17T11:21:09.653Z,714.38
2018-05-17T11:22:09.736Z,708.75
2018-05-17T11:23:09.707Z,714.38
2018-05-17T11:24:09.730Z,714.38
2018-05-17T11:25:09.755Z,630.00
2018-05-17T11:26:09.779Z,708.75
2018-05-17T11:27:09.812Z,708.75
2018-05-17T11:28:09.836Z,708.75
2018-05-17T11:29:09.857Z,714.38
2018-05-17T11:30:09.884Z,703.13
2018-05-17T11:31:09.913Z,708.75
2018-05-17T11:32:09.940Z,703.13
2018-05-17T11:33:10.056Z,663.75
2018-05-17T11:34:10.047Z,703.13
2018-05-17T11:35:10.026Z,686.25
2018-05-17T11:36:10.057Z,720.00
2018-05-17T11:37:10.077Z,708.75
2018-05-17T11:38:10.103Z,708.75
2018-05-17T11:39:10.140Z,714.38
2018-05-17T11:40:10.154Z,675.00
2018-05-17T11:41:10.177Z,720.00
2018-05-17T11:42:10.211Z,714.38
2018-05-17T11:43:10.230Z,708.75
2018-05-17T11:44:10.320Z,714.38
2018-05-17T11:45:10.332Z,720.00
2018-05-17T11:46:10.309Z,714.38
2018-05-17T11:47:10.344Z,714.38
2018-05-17T11:48:10.362Z,708.75
2018-05-17T11:49:10.386Z,708.75
2018-05-17T11:50:10.412Z,708.75
2018-05-17T11:51:10.443Z,708.75
2018-05-17T11:52:10.521Z,703.13
2018-05-17T11:53:10.496Z,708.75
2018-05-17T11:54:10.517Z,708.75
2018-05-17T11:55:10.543Z,708.75
2018-05-17T11:56:10.570Z,708.75
2018-05-17T11:58:10.694Z,708.75
2018-05-17T11:59:10.648Z,714.38
2018-05-17T12:00:10.679Z,708.75
2018-05-17T12:01:10.706Z,714.38
2018-05-17T12:02:10.730Z,708.75
2018-05-17T12:03:10.807Z,708.75
2018-05-17T12:04:10.786Z,708.75
2018-05-17T12:05:10.807Z,703.13
2018-05-17T12:06:10.838Z,714.38
2018-05-17T12:07:10.935Z,703.13
2018-05-17T12:08:10.891Z,703.13
2018-05-17T12:09:10.916Z,703.13
2018-05-17T12:10:10.942Z,697.50
2018-05-17T12:11:10.972Z,697.50
2018-05-17T12:12:10.996Z,703.13
2018-05-17T12:13:11.021Z,703.13
2018-05-17T12:14:11.046Z,703.13
2018-05-17T12:15:11.122Z,703.13
2018-05-17T12:16:11.098Z,703.13
2018-05-17T12:17:11.127Z,703.13
2018-05-17T12:18:11.158Z,703.13
2018-05-17T12:19:11.179Z,703.13
2018-05-17T12:20:11.206Z,703.13
2018-05-17T12:21:11.283Z,703.13
2018-05-17T12:22:11.268Z,703.13
2018-05-17T12:23:11.285Z,708.75
2018-05-17T12:24:11.307Z,703.13
2018-05-17T12:25:11.420Z,697.50
2018-05-17T12:26:11.353Z,691.88
2018-05-17T12:27:11.384Z,697.50
2018-05-17T12:28:11.407Z,697.50
2018-05-17T12:29:11.438Z,697.50
2018-05-17T12:30:11.458Z,697.50
2018-05-17T12:31:11.484Z,697.50
2018-05-17T12:32:11.508Z,703.13
2018-05-17T12:33:11.540Z,703.13
2018-05-17T12:34:11.564Z,708.75
2018-05-17T12:35:11.591Z,703.13
2018-05-17T12:36:11.613Z,703.13
2018-05-17T12:37:11.734Z,697.50
2018-05-17T12:38:11.662Z,703.13
2018-05-17T12:39:11.745Z,703.13
2018-05-17T12:40:11.720Z,697.50
2018-05-17T12:41:11.754Z,697.50
2018-05-17T12:42:11.766Z,697.50
2018-05-17T12:43:11.798Z,697.50
2018-05-17T12:45:11.970Z,691.88
2018-05-17T12:46:11.867Z,697.50
2018-05-17T12:47:11.891Z,686.25
2018-05-17T12:48:11.913Z,691.88
2018-05-17T12:49:11.939Z,686.25
2018-05-17T12:50:11.969Z,686.25
2018-05-17T12:51:12.027Z,680.63
2018-05-17T12:52:12.020Z,686.25
2018-05-17T12:53:12.048Z,686.25
2018-05-17T12:56:12.121Z,686.25
2018-05-17T12:57:12.164Z,686.25
2018-05-17T12:58:12.165Z,618.75
2018-05-17T12:59:12.196Z,686.25